Stark City, Missouri
Current Conditions -  °F | °C
As of 1:35 PM on Friday 28 Nov 2014 (Local Time) from KHFJ Reporting Station
Clear Clear  
Wind Chill: 59°   Ceiling: Unl
Heat Index: 59°   Visibility: 10mi
Dew Point: 34°   Wind: 22mph
Humidity: 39%   Direction: 200°SSW
Pressure: 29.94"   Gusts: 29mph
Location:  36.86°N, 94.19°W
Report Text: KHFJ 281935Z AUTO 20019G25KT 10SM CLR 15/01 A2994 RMK AO2
Loading
Personal Weather Stations






























Interactive Weather Map New forecast layout! Learn more

10-Day Weather Forecast

Advertisements
Track Severe Weather on mobile